sensor_id;sensor_type;location;lat;lon;timestamp;P1;durP1;ratioP1;P2;durP2;ratioP2
73557;SDS011;61829;53.286;10.434;2023-07-20T00:02:24;4.40;;;1.70;;
73557;SDS011;61829;53.286;10.434;2023-07-20T00:04:49;4.45;;;1.60;;
73557;SDS011;61829;53.286;10.434;2023-07-20T00:07:15;3.20;;;1.80;;
73557;SDS011;61829;53.286;10.434;2023-07-20T00:09:41;4.53;;;1.88;;
73557;SDS011;61829;53.286;10.434;2023-07-20T00:12:07;6.80;;;2.00;;
73557;SDS011;61829;53.286;10.434;2023-07-20T00:14:33;3.00;;;1.63;;
73557;SDS011;61829;53.286;10.434;2023-07-20T00:16:59;4.97;;;1.80;;
73557;SDS011;61829;53.286;10.434;2023-07-20T00:19:27;3.03;;;1.50;;
73557;SDS011;61829;53.286;10.434;2023-07-20T00:21:53;3.75;;;1.50;;
73557;SDS011;61829;53.286;10.434;2023-07-20T00:26:46;3.33;;;1.58;;
73557;SDS011;61829;53.286;10.434;2023-07-20T00:29:12;5.68;;;1.67;;
73557;SDS011;61829;53.286;10.434;2023-07-20T00:31:38;2.28;;;1.58;;
73557;SDS011;61829;53.286;10.434;2023-07-20T00:34:07;3.78;;;1.83;;
73557;SDS011;61829;53.286;10.434;2023-07-20T00:36:36;2.70;;;1.83;;
73557;SDS011;61829;53.286;10.434;2023-07-20T00:39:02;3.22;;;1.50;;
73557;SDS011;61829;53.286;10.434;2023-07-20T00:41:28;3.38;;;1.60;;
73557;SDS011;61829;53.286;10.434;2023-07-20T00:43:55;3.22;;;2.00;;
73557;SDS011;61829;53.286;10.434;2023-07-20T00:46:22;4.57;;;1.90;;
73557;SDS011;61829;53.286;10.434;2023-07-20T00:48:50;3.63;;;1.80;;
73557;SDS011;61829;53.286;10.434;2023-07-20T00:51:18;5.10;;;2.03;;
73557;SDS011;61829;53.286;10.434;2023-07-20T00:53:45;4.82;;;2.00;;
73557;SDS011;61829;53.286;10.434;2023-07-20T00:56:11;2.92;;;2.00;;
73557;SDS011;61829;53.286;10.434;2023-07-20T00:58:37;2.65;;;1.80;;
73557;SDS011;61829;53.286;10.434;2023-07-20T01:01:03;3.35;;;2.10;;
73557;SDS011;61829;53.286;10.434;2023-07-20T01:03:29;4.80;;;1.90;;
73557;SDS011;61829;53.286;10.434;2023-07-20T01:06:04;5.47;;;1.95;;
73557;SDS011;61829;53.286;10.434;2023-07-20T01:13:03;3.72;;;1.88;;
73557;SDS011;61829;53.286;10.434;2023-07-20T01:15:35;3.15;;;1.95;;
73557;SDS011;61829;53.286;10.434;2023-07-20T01:18:01;3.20;;;1.70;;
73557;SDS011;61829;53.286;10.434;2023-07-20T01:20:27;3.90;;;1.80;;
73557;SDS011;61829;53.286;10.434;2023-07-20T01:33:56;4.63;;;2.40;;
73557;SDS011;61829;53.286;10.434;2023-07-20T01:36:28;2.50;;;1.80;;
73557;SDS011;61829;53.286;10.434;2023-07-20T01:38:56;4.65;;;1.80;;
73557;SDS011;61829;53.286;10.434;2023-07-20T01:41:22;2.78;;;1.80;;
73557;SDS011;61829;53.286;10.434;2023-07-20T01:43:48;3.05;;;1.73;;
73557;SDS011;61829;53.286;10.434;2023-07-20T01:46:14;5.65;;;2.03;;
73557;SDS011;61829;53.286;10.434;2023-07-20T01:48:40;2.90;;;2.03;;
73557;SDS011;61829;53.286;10.434;2023-07-20T01:51:06;3.10;;;1.85;;
73557;SDS011;61829;53.286;10.434;2023-07-20T01:53:31;5.22;;;2.05;;
73557;SDS011;61829;53.286;10.434;2023-07-20T01:55:57;5.75;;;2.10;;
73557;SDS011;61829;53.286;10.434;2023-07-20T01:58:23;3.05;;;2.10;;
73557;SDS011;61829;53.286;10.434;2023-07-20T02:00:50;3.72;;;2.20;;
73557;SDS011;61829;53.286;10.434;2023-07-20T02:03:16;3.83;;;1.83;;
73557;SDS011;61829;53.286;10.434;2023-07-20T02:05:42;5.13;;;1.95;;
73557;SDS011;61829;53.286;10.434;2023-07-20T02:08:08;4.20;;;2.00;;
73557;SDS011;61829;53.286;10.434;2023-07-20T02:10:35;2.70;;;1.90;;
73557;SDS011;61829;53.286;10.434;2023-07-20T02:13:05;2.78;;;1.73;;
73557;SDS011;61829;53.286;10.434;2023-07-20T02:15:31;3.67;;;1.90;;
73557;SDS011;61829;53.286;10.434;2023-07-20T02:17:56;4.57;;;1.95;;
73557;SDS011;61829;53.286;10.434;2023-07-20T02:20:23;3.47;;;2.20;;
73557;SDS011;61829;53.286;10.434;2023-07-20T02:22:48;5.10;;;2.13;;
73557;SDS011;61829;53.286;10.434;2023-07-20T02:28:14;3.67;;;1.92;;
73557;SDS011;61829;53.286;10.434;2023-07-20T02:30:40;3.75;;;2.08;;
73557;SDS011;61829;53.286;10.434;2023-07-20T02:33:06;5.10;;;2.30;;
73557;SDS011;61829;53.286;10.434;2023-07-20T02:35:33;6.55;;;2.20;;
73557;SDS011;61829;53.286;10.434;2023-07-20T02:37:58;6.43;;;2.10;;
73557;SDS011;61829;53.286;10.434;2023-07-20T02:40:25;4.93;;;2.35;;
73557;SDS011;61829;53.286;10.434;2023-07-20T02:42:50;5.15;;;2.67;;
73557;SDS011;61829;53.286;10.434;2023-07-20T02:45:16;5.32;;;2.75;;
73557;SDS011;61829;53.286;10.434;2023-07-20T02:47:42;4.60;;;2.42;;
73557;SDS011;61829;53.286;10.434;2023-07-20T02:50:08;3.75;;;2.38;;
73557;SDS011;61829;53.286;10.434;2023-07-20T02:52:34;6.40;;;2.72;;
73557;SDS011;61829;53.286;10.434;2023-07-20T02:55:00;6.13;;;2.90;;
73557;SDS011;61829;53.286;10.434;2023-07-20T02:57:26;4.82;;;2.80;;
73557;SDS011;61829;53.286;10.434;2023-07-20T02:59:52;6.15;;;2.90;;
73557;SDS011;61829;53.286;10.434;2023-07-20T03:02:19;3.80;;;2.85;;
73557;SDS011;61829;53.286;10.434;2023-07-20T03:04:45;4.70;;;3.08;;
73557;SDS011;61829;53.286;10.434;2023-07-20T03:07:11;4.57;;;2.92;;
73557;SDS011;61829;53.286;10.434;2023-07-20T03:09:37;7.25;;;2.97;;
73557;SDS011;61829;53.286;10.434;2023-07-20T03:12:02;5.70;;;2.88;;
73557;SDS011;61829;53.286;10.434;2023-07-20T03:14:30;4.35;;;2.97;;
73557;SDS011;61829;53.286;10.434;2023-07-20T03:16:55;7.28;;;2.90;;
73557;SDS011;61829;53.286;10.434;2023-07-20T03:19:21;3.83;;;2.72;;
73557;SDS011;61829;53.286;10.434;2023-07-20T03:21:50;7.00;;;3.08;;
73557;SDS011;61829;53.286;10.434;2023-07-20T03:24:16;5.25;;;3.13;;
73557;SDS011;61829;53.286;10.434;2023-07-20T03:26:42;6.45;;;3.03;;
73557;SDS011;61829;53.286;10.434;2023-07-20T03:29:08;5.38;;;3.15;;
73557;SDS011;61829;53.286;10.434;2023-07-20T03:31:33;5.95;;;3.33;;
73557;SDS011;61829;53.286;10.434;2023-07-20T03:33:59;5.95;;;3.17;;
73557;SDS011;61829;53.286;10.434;2023-07-20T03:36:25;6.80;;;2.97;;
73557;SDS011;61829;53.286;10.434;2023-07-20T03:38:51;6.78;;;3.35;;
73557;SDS011;61829;53.286;10.434;2023-07-20T03:41:17;6.22;;;3.00;;
73557;SDS011;61829;53.286;10.434;2023-07-20T03:43:43;8.50;;;3.10;;
73557;SDS011;61829;53.286;10.434;2023-07-20T03:46:08;6.57;;;3.22;;
73557;SDS011;61829;53.286;10.434;2023-07-20T03:52:34;6.07;;;2.92;;
73557;SDS011;61829;53.286;10.434;2023-07-20T03:55:00;5.28;;;3.28;;
73557;SDS011;61829;53.286;10.434;2023-07-20T03:57:26;6.65;;;3.10;;
73557;SDS011;61829;53.286;10.434;2023-07-20T03:59:52;4.55;;;2.97;;
73557;SDS011;61829;53.286;10.434;2023-07-20T04:02:18;4.35;;;2.83;;
73557;SDS011;61829;53.286;10.434;2023-07-20T04:04:44;7.50;;;3.08;;
73557;SDS011;61829;53.286;10.434;2023-07-20T04:07:12;7.93;;;3.15;;
73557;SDS011;61829;53.286;10.434;2023-07-20T04:14:26;5.22;;;2.60;;
73557;SDS011;61829;53.286;10.434;2023-07-20T04:17:56;3.15;;;2.00;;
73557;SDS011;61829;53.286;10.434;2023-07-20T04:20:45;5.22;;;2.28;;
73557;SDS011;61829;53.286;10.434;2023-07-20T04:24:31;3.38;;;2.00;;
73557;SDS011;61829;53.286;10.434;2023-07-20T04:27:08;3.22;;;2.08;;
73557;SDS011;61829;53.286;10.434;2023-07-20T04:33:55;5.22;;;2.35;;
73557;SDS011;61829;53.286;10.434;2023-07-20T04:48:26;2.38;;;1.67;;
73557;SDS011;61829;53.286;10.434;2023-07-20T05:19:39;3.17;;;1.88;;
73557;SDS011;61829;53.286;10.434;2023-07-20T05:50:14;3.38;;;2.00;;
73557;SDS011;61829;53.286;10.434;2023-07-20T05:52:40;3.53;;;1.60;;
73557;SDS011;61829;53.286;10.434;2023-07-20T05:55:06;3.35;;;2.25;;
73557;SDS011;61829;53.286;10.434;2023-07-20T05:57:33;4.60;;;1.80;;
73557;SDS011;61829;53.286;10.434;2023-07-20T05:59:58;3.85;;;1.70;;
73557;SDS011;61829;53.286;10.434;2023-07-20T06:02:24;1.85;;;1.33;;
73557;SDS011;61829;53.286;10.434;2023-07-20T06:04:50;3.20;;;1.80;;
73557;SDS011;61829;53.286;10.434;2023-07-20T06:07:16;2.13;;;1.40;;
73557;SDS011;61829;53.286;10.434;2023-07-20T06:09:42;3.25;;;1.52;;
73557;SDS011;61829;53.286;10.434;2023-07-20T06:12:08;1.80;;;1.20;;
73557;SDS011;61829;53.286;10.434;2023-07-20T06:14:34;2.95;;;1.27;;
73557;SDS011;61829;53.286;10.434;2023-07-20T06:17:00;2.03;;;1.15;;
73557;SDS011;61829;53.286;10.434;2023-07-20T06:19:26;2.55;;;1.30;;
73557;SDS011;61829;53.286;10.434;2023-07-20T06:21:52;1.33;;;1.02;;
73557;SDS011;61829;53.286;10.434;2023-07-20T06:24:18;1.25;;;1.00;;
73557;SDS011;61829;53.286;10.434;2023-07-20T06:26:44;4.30;;;1.10;;
73557;SDS011;61829;53.286;10.434;2023-07-20T06:29:09;1.38;;;0.90;;
73557;SDS011;61829;53.286;10.434;2023-07-20T06:31:36;1.35;;;1.15;;
73557;SDS011;61829;53.286;10.434;2023-07-20T06:34:02;1.02;;;0.95;;
73557;SDS011;61829;53.286;10.434;2023-07-20T06:39:34;1.15;;;0.93;;
73557;SDS011;61829;53.286;10.434;2023-07-20T06:42:01;1.83;;;1.10;;
73557;SDS011;61829;53.286;10.434;2023-07-20T06:44:26;2.05;;;1.33;;
73557;SDS011;61829;53.286;10.434;2023-07-20T06:49:56;2.33;;;1.10;;
73557;SDS011;61829;53.286;10.434;2023-07-20T06:52:23;3.05;;;1.45;;
73557;SDS011;61829;53.286;10.434;2023-07-20T06:54:48;1.52;;;1.05;;
73557;SDS011;61829;53.286;10.434;2023-07-20T06:57:16;1.98;;;1.08;;
73557;SDS011;61829;53.286;10.434;2023-07-20T06:59:42;1.83;;;1.33;;
73557;SDS011;61829;53.286;10.434;2023-07-20T07:02:08;1.65;;;1.30;;
73557;SDS011;61829;53.286;10.434;2023-07-20T07:04:33;1.73;;;1.27;;
73557;SDS011;61829;53.286;10.434;2023-07-20T07:06:59;4.05;;;1.35;;
73557;SDS011;61829;53.286;10.434;2023-07-20T07:09:25;2.17;;;1.00;;
73557;SDS011;61829;53.286;10.434;2023-07-20T07:11:51;2.53;;;1.13;;
73557;SDS011;61829;53.286;10.434;2023-07-20T07:14:19;3.00;;;1.10;;
73557;SDS011;61829;53.286;10.434;2023-07-20T07:16:45;2.03;;;0.82;;
73557;SDS011;61829;53.286;10.434;2023-07-20T07:19:11;1.15;;;1.00;;
73557;SDS011;61829;53.286;10.434;2023-07-20T07:21:37;3.72;;;1.20;;
73557;SDS011;61829;53.286;10.434;2023-07-20T07:24:03;2.35;;;0.90;;
73557;SDS011;61829;53.286;10.434;2023-07-20T07:26:29;2.03;;;0.88;;
73557;SDS011;61829;53.286;10.434;2023-07-20T07:28:55;3.40;;;0.90;;
73557;SDS011;61829;53.286;10.434;2023-07-20T07:31:21;2.25;;;0.85;;
73557;SDS011;61829;53.286;10.434;2023-07-20T07:33:46;1.25;;;0.80;;
73557;SDS011;61829;53.286;10.434;2023-07-20T07:36:12;2.17;;;1.00;;
73557;SDS011;61829;53.286;10.434;2023-07-20T07:38:38;1.42;;;1.00;;
73557;SDS011;61829;53.286;10.434;2023-07-20T07:41:05;2.78;;;0.95;;
73557;SDS011;61829;53.286;10.434;2023-07-20T07:43:31;2.17;;;0.90;;
73557;SDS011;61829;53.286;10.434;2023-07-20T07:45:58;3.60;;;0.90;;
73557;SDS011;61829;53.286;10.434;2023-07-20T07:48:24;0.82;;;0.80;;
73557;SDS011;61829;53.286;10.434;2023-07-20T07:50:51;3.40;;;0.82;;
73557;SDS011;61829;53.286;10.434;2023-07-20T07:53:16;4.20;;;0.93;;
73557;SDS011;61829;53.286;10.434;2023-07-20T07:55:43;1.65;;;0.90;;
73557;SDS011;61829;53.286;10.434;2023-07-20T07:58:10;3.95;;;1.00;;
73557;SDS011;61829;53.286;10.434;2023-07-20T08:00:38;1.50;;;1.20;;
73557;SDS011;61829;53.286;10.434;2023-07-20T08:03:03;2.10;;;1.02;;
73557;SDS011;61829;53.286;10.434;2023-07-20T08:05:33;4.70;;;1.10;;
73557;SDS011;61829;53.286;10.434;2023-07-20T08:08:01;2.95;;;0.90;;
73557;SDS011;61829;53.286;10.434;2023-07-20T08:10:29;3.22;;;0.93;;
73557;SDS011;61829;53.286;10.434;2023-07-20T08:12:57;1.77;;;0.73;;
73557;SDS011;61829;53.286;10.434;2023-07-20T08:15:23;2.25;;;0.80;;
73557;SDS011;61829;53.286;10.434;2023-07-20T08:17:49;2.33;;;0.77;;
73557;SDS011;61829;53.286;10.434;2023-07-20T08:20:18;2.58;;;0.82;;
73557;SDS011;61829;53.286;10.434;2023-07-20T08:22:45;4.18;;;1.02;;
73557;SDS011;61829;53.286;10.434;2023-07-20T08:25:11;2.15;;;0.80;;
73557;SDS011;61829;53.286;10.434;2023-07-20T08:27:37;1.00;;;0.60;;
73557;SDS011;61829;53.286;10.434;2023-07-20T08:30:04;3.60;;;0.80;;
73557;SDS011;61829;53.286;10.434;2023-07-20T08:34:58;2.70;;;0.90;;
73557;SDS011;61829;53.286;10.434;2023-07-20T08:37:24;2.42;;;0.95;;
73557;SDS011;61829;53.286;10.434;2023-07-20T08:39:51;4.63;;;1.20;;
73557;SDS011;61829;53.286;10.434;2023-07-20T08:42:17;1.80;;;1.00;;
73557;SDS011;61829;53.286;10.434;2023-07-20T08:44:43;2.28;;;1.10;;
73557;SDS011;61829;53.286;10.434;2023-07-20T08:47:11;2.35;;;0.93;;
73557;SDS011;61829;53.286;10.434;2023-07-20T08:49:40;1.85;;;0.73;;
73557;SDS011;61829;53.286;10.434;2023-07-20T08:52:07;2.22;;;1.00;;
73557;SDS011;61829;53.286;10.434;2023-07-20T08:54:33;3.80;;;1.10;;
73557;SDS011;61829;53.286;10.434;2023-07-20T08:57:02;4.07;;;0.90;;
73557;SDS011;61829;53.286;10.434;2023-07-20T08:59:31;2.88;;;0.90;;
73557;SDS011;61829;53.286;10.434;2023-07-20T09:01:58;5.78;;;1.00;;
73557;SDS011;61829;53.286;10.434;2023-07-20T09:04:25;2.75;;;0.90;;
73557;SDS011;61829;53.286;10.434;2023-07-20T09:06:51;1.88;;;0.80;;
73557;SDS011;61829;53.286;10.434;2023-07-20T09:09:20;1.80;;;0.80;;
73557;SDS011;61829;53.286;10.434;2023-07-20T09:11:51;1.30;;;0.70;;
73557;SDS011;61829;53.286;10.434;2023-07-20T09:17:41;3.40;;;0.75;;
73557;SDS011;61829;53.286;10.434;2023-07-20T09:20:14;2.10;;;0.90;;
73557;SDS011;61829;53.286;10.434;2023-07-20T09:22:50;1.25;;;0.80;;
73557;SDS011;61829;53.286;10.434;2023-07-20T09:25:19;1.75;;;0.70;;
73557;SDS011;61829;53.286;10.434;2023-07-20T09:27:48;3.53;;;0.90;;
73557;SDS011;61829;53.286;10.434;2023-07-20T09:30:16;2.17;;;1.00;;
73557;SDS011;61829;53.286;10.434;2023-07-20T09:32:44;2.28;;;0.80;;
73557;SDS011;61829;53.286;10.434;2023-07-20T09:35:15;3.63;;;0.90;;
73557;SDS011;61829;53.286;10.434;2023-07-20T09:37:58;1.08;;;0.93;;
73557;SDS011;61829;53.286;10.434;2023-07-20T09:40:25;1.88;;;0.90;;
73557;SDS011;61829;53.286;10.434;2023-07-20T09:42:54;2.42;;;1.10;;
73557;SDS011;61829;53.286;10.434;2023-07-20T09:45:30;2.40;;;1.20;;
73557;SDS011;61829;53.286;10.434;2023-07-20T09:48:09;4.13;;;1.10;;
73557;SDS011;61829;53.286;10.434;2023-07-20T09:50:40;2.00;;;0.93;;
73557;SDS011;61829;53.286;10.434;2023-07-20T09:53:09;3.03;;;1.10;;
73557;SDS011;61829;53.286;10.434;2023-07-20T09:55:43;1.73;;;0.90;;
73557;SDS011;61829;53.286;10.434;2023-07-20T09:58:14;1.52;;;0.80;;
73557;SDS011;61829;53.286;10.434;2023-07-20T10:00:42;3.20;;;1.20;;
73557;SDS011;61829;53.286;10.434;2023-07-20T10:03:19;7.13;;;1.83;;
73557;SDS011;61829;53.286;10.434;2023-07-20T10:05:58;3.90;;;1.23;;
73557;SDS011;61829;53.286;10.434;2023-07-20T10:08:32;2.78;;;1.30;;
73557;SDS011;61829;53.286;10.434;2023-07-20T10:11:08;3.80;;;1.10;;
73557;SDS011;61829;53.286;10.434;2023-07-20T10:13:38;2.28;;;1.13;;
73557;SDS011;61829;53.286;10.434;2023-07-20T10:16:10;5.78;;;1.40;;
73557;SDS011;61829;53.286;10.434;2023-07-20T10:18:50;3.58;;;1.60;;
73557;SDS011;61829;53.286;10.434;2023-07-20T10:21:21;5.95;;;1.40;;
73557;SDS011;61829;53.286;10.434;2023-07-20T10:27:21;2.75;;;1.23;;
73557;SDS011;61829;53.286;10.434;2023-07-20T10:29:48;2.55;;;1.40;;
73557;SDS011;61829;53.286;10.434;2023-07-20T10:32:14;3.42;;;1.15;;
73557;SDS011;61829;53.286;10.434;2023-07-20T10:34:41;3.25;;;1.20;;
73557;SDS011;61829;53.286;10.434;2023-07-20T10:37:07;2.70;;;1.48;;
73557;SDS011;61829;53.286;10.434;2023-07-20T10:42:47;3.13;;;1.13;;
73557;SDS011;61829;53.286;10.434;2023-07-20T10:45:13;2.25;;;1.13;;
73557;SDS011;61829;53.286;10.434;2023-07-20T10:47:46;4.07;;;1.13;;
73557;SDS011;61829;53.286;10.434;2023-07-20T10:53:34;2.70;;;1.00;;
73557;SDS011;61829;53.286;10.434;2023-07-20T10:56:08;1.73;;;1.10;;
73557;SDS011;61829;53.286;10.434;2023-07-20T10:58:37;3.13;;;1.05;;
73557;SDS011;61829;53.286;10.434;2023-07-20T11:01:04;7.40;;;1.73;;
73557;SDS011;61829;53.286;10.434;2023-07-20T11:03:33;6.40;;;1.73;;
73557;SDS011;61829;53.286;10.434;2023-07-20T11:09:11;4.50;;;1.33;;
73557;SDS011;61829;53.286;10.434;2023-07-20T11:14:31;2.88;;;1.23;;
73557;SDS011;61829;53.286;10.434;2023-07-20T11:17:10;2.05;;;1.10;;
73557;SDS011;61829;53.286;10.434;2023-07-20T11:19:39;2.90;;;1.27;;
73557;SDS011;61829;53.286;10.434;2023-07-20T11:22:08;3.97;;;1.23;;
73557;SDS011;61829;53.286;10.434;2023-07-20T11:24:39;2.70;;;1.10;;
73557;SDS011;61829;53.286;10.434;2023-07-20T11:27:05;3.50;;;1.20;;
73557;SDS011;61829;53.286;10.434;2023-07-20T11:29:34;3.10;;;1.10;;
73557;SDS011;61829;53.286;10.434;2023-07-20T11:32:03;4.20;;;1.15;;
73557;SDS011;61829;53.286;10.434;2023-07-20T11:34:31;4.18;;;1.30;;
73557;SDS011;61829;53.286;10.434;2023-07-20T11:40:57;2.42;;;1.02;;
73557;SDS011;61829;53.286;10.434;2023-07-20T11:43:24;1.17;;;0.90;;
73557;SDS011;61829;53.286;10.434;2023-07-20T11:45:51;4.53;;;1.20;;
73557;SDS011;61829;53.286;10.434;2023-07-20T11:48:17;2.80;;;0.98;;
73557;SDS011;61829;53.286;10.434;2023-07-20T11:50:43;2.42;;;0.88;;
73557;SDS011;61829;53.286;10.434;2023-07-20T11:53:11;1.92;;;0.93;;
73557;SDS011;61829;53.286;10.434;2023-07-20T11:55:38;2.70;;;1.00;;
73557;SDS011;61829;53.286;10.434;2023-07-20T11:58:06;3.33;;;0.90;;
73557;SDS011;61829;53.286;10.434;2023-07-20T12:00:34;1.65;;;0.90;;
73557;SDS011;61829;53.286;10.434;2023-07-20T12:03:01;5.35;;;1.30;;
73557;SDS011;61829;53.286;10.434;2023-07-20T12:05:32;2.25;;;0.90;;
73557;SDS011;61829;53.286;10.434;2023-07-20T12:07:59;2.17;;;0.70;;
73557;SDS011;61829;53.286;10.434;2023-07-20T12:10:26;3.00;;;0.75;;
73557;SDS011;61829;53.286;10.434;2023-07-20T12:12:54;3.45;;;1.00;;
73557;SDS011;61829;53.286;10.434;2023-07-20T12:15:21;1.88;;;0.50;;
73557;SDS011;61829;53.286;10.434;2023-07-20T12:17:49;2.85;;;0.70;;
73557;SDS011;61829;53.286;10.434;2023-07-20T12:22:59;1.58;;;0.70;;
73557;SDS011;61829;53.286;10.434;2023-07-20T12:28:10;1.42;;;0.70;;
73557;SDS011;61829;53.286;10.434;2023-07-20T12:30:41;1.55;;;0.60;;
73557;SDS011;61829;53.286;10.434;2023-07-20T12:33:10;3.22;;;0.80;;
73557;SDS011;61829;53.286;10.434;2023-07-20T12:35:37;5.22;;;0.90;;
73557;SDS011;61829;53.286;10.434;2023-07-20T12:38:04;2.45;;;0.80;;
73557;SDS011;61829;53.286;10.434;2023-07-20T12:40:30;1.85;;;0.55;;
73557;SDS011;61829;53.286;10.434;2023-07-20T12:42:56;2.72;;;0.80;;
73557;SDS011;61829;53.286;10.434;2023-07-20T12:47:49;2.88;;;0.73;;
73557;SDS011;61829;53.286;10.434;2023-07-20T12:50:15;1.60;;;0.73;;
73557;SDS011;61829;53.286;10.434;2023-07-20T12:52:42;1.80;;;0.73;;
73557;SDS011;61829;53.286;10.434;2023-07-20T12:55:08;3.72;;;0.93;;
73557;SDS011;61829;53.286;10.434;2023-07-20T12:57:40;1.40;;;0.60;;
73557;SDS011;61829;53.286;10.434;2023-07-20T13:00:25;2.78;;;0.75;;
73557;SDS011;61829;53.286;10.434;2023-07-20T13:02:51;1.58;;;0.95;;
73557;SDS011;61829;53.286;10.434;2023-07-20T13:05:18;1.88;;;0.70;;
73557;SDS011;61829;53.286;10.434;2023-07-20T13:07:44;2.60;;;0.63;;
73557;SDS011;61829;53.286;10.434;2023-07-20T13:10:11;3.67;;;1.00;;
73557;SDS011;61829;53.286;10.434;2023-07-20T13:12:38;1.38;;;0.70;;
73557;SDS011;61829;53.286;10.434;2023-07-20T13:15:04;2.95;;;0.70;;
73557;SDS011;61829;53.286;10.434;2023-07-20T13:17:35;3.92;;;0.90;;
73557;SDS011;61829;53.286;10.434;2023-07-20T13:20:07;2.15;;;0.80;;
73557;SDS011;61829;53.286;10.434;2023-07-20T13:22:39;3.00;;;0.90;;
73557;SDS011;61829;53.286;10.434;2023-07-20T13:25:06;3.63;;;0.80;;
73557;SDS011;61829;53.286;10.434;2023-07-20T13:27:33;1.77;;;0.70;;
73557;SDS011;61829;53.286;10.434;2023-07-20T13:30:00;3.92;;;0.90;;
73557;SDS011;61829;53.286;10.434;2023-07-20T13:34:53;1.10;;;0.50;;
73557;SDS011;61829;53.286;10.434;2023-07-20T13:37:20;1.25;;;0.70;;
73557;SDS011;61829;53.286;10.434;2023-07-20T13:39:47;1.27;;;0.52;;
73557;SDS011;61829;53.286;10.434;2023-07-20T13:42:13;1.23;;;0.40;;
73557;SDS011;61829;53.286;10.434;2023-07-20T13:44:39;1.10;;;0.60;;
73557;SDS011;61829;53.286;10.434;2023-07-20T13:47:06;1.42;;;0.50;;
73557;SDS011;61829;53.286;10.434;2023-07-20T13:49:32;1.73;;;0.60;;
73557;SDS011;61829;53.286;10.434;2023-07-20T13:51:58;2.35;;;0.60;;
73557;SDS011;61829;53.286;10.434;2023-07-20T13:54:25;0.98;;;0.50;;
73557;SDS011;61829;53.286;10.434;2023-07-20T14:00:02;0.93;;;0.57;;
73557;SDS011;61829;53.286;10.434;2023-07-20T14:02:30;2.85;;;0.70;;
73557;SDS011;61829;53.286;10.434;2023-07-20T14:04:56;1.67;;;0.60;;
73557;SDS011;61829;53.286;10.434;2023-07-20T14:07:22;1.38;;;0.70;;
73557;SDS011;61829;53.286;10.434;2023-07-20T14:09:48;4.07;;;0.90;;
73557;SDS011;61829;53.286;10.434;2023-07-20T14:12:14;2.10;;;0.80;;
73557;SDS011;61829;53.286;10.434;2023-07-20T14:14:40;3.85;;;1.00;;
73557;SDS011;61829;53.286;10.434;2023-07-20T14:17:09;3.50;;;0.93;;
73557;SDS011;61829;53.286;10.434;2023-07-20T14:19:37;3.05;;;0.70;;
73557;SDS011;61829;53.286;10.434;2023-07-20T14:22:03;2.78;;;0.80;;
73557;SDS011;61829;53.286;10.434;2023-07-20T14:24:31;2.05;;;0.73;;
73557;SDS011;61829;53.286;10.434;2023-07-20T14:26:57;3.03;;;0.98;;
73557;SDS011;61829;53.286;10.434;2023-07-20T14:29:27;1.77;;;0.73;;
73557;SDS011;61829;53.286;10.434;2023-07-20T14:31:57;2.53;;;0.70;;
73557;SDS011;61829;53.286;10.434;2023-07-20T14:34:23;4.32;;;0.80;;
73557;SDS011;61829;53.286;10.434;2023-07-20T14:39:39;3.28;;;0.90;;
73557;SDS011;61829;53.286;10.434;2023-07-20T14:42:21;2.58;;;0.90;;
73557;SDS011;61829;53.286;10.434;2023-07-20T14:44:51;2.15;;;0.65;;
73557;SDS011;61829;53.286;10.434;2023-07-20T14:47:18;3.22;;;0.70;;
73557;SDS011;61829;53.286;10.434;2023-07-20T14:49:44;2.95;;;1.00;;
73557;SDS011;61829;53.286;10.434;2023-07-20T14:54:38;1.50;;;0.82;;
73557;SDS011;61829;53.286;10.434;2023-07-20T14:57:04;3.05;;;0.90;;
73557;SDS011;61829;53.286;10.434;2023-07-20T14:59:30;2.03;;;1.00;;
73557;SDS011;61829;53.286;10.434;2023-07-20T15:01:59;2.03;;;1.20;;
73557;SDS011;61829;53.286;10.434;2023-07-20T15:04:25;3.40;;;0.85;;
73557;SDS011;61829;53.286;10.434;2023-07-20T15:06:52;3.70;;;1.20;;
73557;SDS011;61829;53.286;10.434;2023-07-20T15:09:19;1.80;;;0.95;;
73557;SDS011;61829;53.286;10.434;2023-07-20T15:11:45;3.60;;;0.95;;
73557;SDS011;61829;53.286;10.434;2023-07-20T15:14:11;3.40;;;1.20;;
73557;SDS011;61829;53.286;10.434;2023-07-20T15:16:38;2.35;;;1.10;;
73557;SDS011;61829;53.286;10.434;2023-07-20T15:19:04;1.77;;;1.10;;
73557;SDS011;61829;53.286;10.434;2023-07-20T15:21:30;1.20;;;0.80;;
73557;SDS011;61829;53.286;10.434;2023-07-20T15:23:57;3.97;;;1.20;;
73557;SDS011;61829;53.286;10.434;2023-07-20T15:26:24;3.30;;;1.10;;
73557;SDS011;61829;53.286;10.434;2023-07-20T15:28:50;5.45;;;1.50;;
73557;SDS011;61829;53.286;10.434;2023-07-20T15:31:17;3.55;;;1.17;;
73557;SDS011;61829;53.286;10.434;2023-07-20T15:33:43;3.65;;;1.50;;
73557;SDS011;61829;53.286;10.434;2023-07-20T15:36:09;3.63;;;1.10;;
73557;SDS011;61829;53.286;10.434;2023-07-20T15:38:35;6.00;;;1.42;;
73557;SDS011;61829;53.286;10.434;2023-07-20T15:41:01;4.57;;;1.23;;
73557;SDS011;61829;53.286;10.434;2023-07-20T15:43:29;2.85;;;1.20;;
73557;SDS011;61829;53.286;10.434;2023-07-20T15:46:35;1.80;;;0.90;;
73557;SDS011;61829;53.286;10.434;2023-07-20T15:48:44;2.85;;;0.88;;
73557;SDS011;61829;53.286;10.434;2023-07-20T15:51:11;2.60;;;0.85;;
73557;SDS011;61829;53.286;10.434;2023-07-20T15:53:37;3.28;;;0.80;;
73557;SDS011;61829;53.286;10.434;2023-07-20T15:56:04;2.22;;;0.75;;
73557;SDS011;61829;53.286;10.434;2023-07-20T15:58:32;2.67;;;0.90;;
73557;SDS011;61829;53.286;10.434;2023-07-20T16:00:59;2.33;;;0.90;;
73557;SDS011;61829;53.286;10.434;2023-07-20T16:03:25;1.40;;;0.70;;
73557;SDS011;61829;53.286;10.434;2023-07-20T16:05:53;3.78;;;1.17;;
73557;SDS011;61829;53.286;10.434;2023-07-20T16:08:19;4.38;;;1.02;;
73557;SDS011;61829;53.286;10.434;2023-07-20T16:13:12;2.25;;;0.80;;
73557;SDS011;61829;53.286;10.434;2023-07-20T16:15:39;2.05;;;0.98;;
73557;SDS011;61829;53.286;10.434;2023-07-20T16:18:06;3.85;;;0.82;;
73557;SDS011;61829;53.286;10.434;2023-07-20T16:22:59;5.55;;;1.00;;
73557;SDS011;61829;53.286;10.434;2023-07-20T16:25:26;3.63;;;1.30;;
73557;SDS011;61829;53.286;10.434;2023-07-20T16:27:52;5.95;;;0.93;;
73557;SDS011;61829;53.286;10.434;2023-07-20T16:30:18;3.40;;;0.93;;
73557;SDS011;61829;53.286;10.434;2023-07-20T16:32:44;2.75;;;0.90;;
73557;SDS011;61829;53.286;10.434;2023-07-20T16:35:10;1.88;;;0.70;;
73557;SDS011;61829;53.286;10.434;2023-07-20T16:37:37;3.65;;;1.00;;
73557;SDS011;61829;53.286;10.434;2023-07-20T16:40:03;2.25;;;0.80;;
73557;SDS011;61829;53.286;10.434;2023-07-20T16:42:34;4.43;;;0.90;;
73557;SDS011;61829;53.286;10.434;2023-07-20T16:45:00;2.90;;;1.08;;
73557;SDS011;61829;53.286;10.434;2023-07-20T16:47:26;2.47;;;0.80;;
73557;SDS011;61829;53.286;10.434;2023-07-20T16:49:53;1.80;;;0.95;;
73557;SDS011;61829;53.286;10.434;2023-07-20T16:52:20;3.03;;;0.93;;
73557;SDS011;61829;53.286;10.434;2023-07-20T16:54:49;4.20;;;1.00;;
73557;SDS011;61829;53.286;10.434;2023-07-20T16:59:42;3.35;;;1.17;;
73557;SDS011;61829;53.286;10.434;2023-07-20T17:02:09;2.25;;;0.90;;
73557;SDS011;61829;53.286;10.434;2023-07-20T17:04:35;2.75;;;1.00;;
73557;SDS011;61829;53.286;10.434;2023-07-20T17:07:02;3.20;;;1.00;;
73557;SDS011;61829;53.286;10.434;2023-07-20T17:09:29;4.05;;;1.00;;
73557;SDS011;61829;53.286;10.434;2023-07-20T17:11:57;2.40;;;0.90;;
73557;SDS011;61829;53.286;10.434;2023-07-20T17:14:25;3.13;;;0.90;;
73557;SDS011;61829;53.286;10.434;2023-07-20T17:16:51;2.95;;;1.10;;
73557;SDS011;61829;53.286;10.434;2023-07-20T17:19:18;3.22;;;1.00;;